createdAt,value
2018-07-10T00:00:03.649Z,3.93
2018-07-10T00:03:47.153Z,4.03
2018-07-10T00:08:29.750Z,3.40
2018-07-10T00:11:40.009Z,5.33
2018-07-10T00:14:09.011Z,3.17
2018-07-10T00:16:37.676Z,3.67
2018-07-10T00:19:06.407Z,3.00
2018-07-10T00:21:35.463Z,3.27
2018-07-10T00:24:04.358Z,3.77
2018-07-10T00:26:33.091Z,2.00
2018-07-10T00:29:01.829Z,2.60
2018-07-10T00:31:30.707Z,2.27
2018-07-10T00:33:59.528Z,5.57
2018-07-10T00:36:28.253Z,2.20
2018-07-10T00:39:07.179Z,3.00
2018-07-10T00:41:37.108Z,3.07
2018-07-10T00:44:06.401Z,3.53
2018-07-10T00:46:36.628Z,2.40
2018-07-10T00:49:05.497Z,2.40
2018-07-10T00:51:37.006Z,4.80
2018-07-10T00:54:05.693Z,4.90
2018-07-10T00:56:34.487Z,3.00
2018-07-10T00:59:04.912Z,3.87
2018-07-10T01:01:34.243Z,2.70
2018-07-10T01:04:02.991Z,2.87
2018-07-10T01:06:32.033Z,2.30
2018-07-10T01:09:00.760Z,2.63
2018-07-10T01:11:29.625Z,2.30
2018-07-10T01:13:58.425Z,2.30
2018-07-10T01:16:35.033Z,4.67
2018-07-10T01:19:09.038Z,2.50
2018-07-10T01:21:38.681Z,2.70
2018-07-10T01:24:07.412Z,3.97
2018-07-10T01:26:38.127Z,7.03
2018-07-10T01:29:13.193Z,2.30
2018-07-10T01:31:44.032Z,3.53
2018-07-10T01:34:13.264Z,2.73
2018-07-10T01:36:42.002Z,2.33
2018-07-10T01:39:10.755Z,3.10
2018-07-10T01:41:39.532Z,2.97
2018-07-10T01:44:08.316Z,3.13
2018-07-10T01:46:37.097Z,2.47
2018-07-10T01:49:05.848Z,3.23
2018-07-10T01:51:35.252Z,3.27
2018-07-10T01:54:04.006Z,2.73
2018-07-10T01:56:32.878Z,2.40
2018-07-10T01:59:02.004Z,3.80
2018-07-10T02:01:30.744Z,3.90
2018-07-10T02:04:00.605Z,3.00
2018-07-10T02:06:29.840Z,3.10
2018-07-10T02:08:59.243Z,3.87
2018-07-10T02:11:28.037Z,3.10
2018-07-10T02:13:56.809Z,2.80
2018-07-10T02:16:25.564Z,2.83
2018-07-10T02:18:54.390Z,3.67
2018-07-10T02:21:23.180Z,5.13
2018-07-10T02:23:52.956Z,3.00
2018-07-10T02:26:24.645Z,3.90
2018-07-10T02:28:54.182Z,3.80
2018-07-10T02:31:23.085Z,3.37
2018-07-10T02:33:52.573Z,4.10
2018-07-10T02:36:22.408Z,4.67
2018-07-10T02:38:52.984Z,4.57
2018-07-10T02:41:23.326Z,3.10
2018-07-10T02:43:56.772Z,4.53
2018-07-10T02:46:26.064Z,3.17
2018-07-10T02:48:56.781Z,4.60
2018-07-10T02:51:25.593Z,4.23
2018-07-10T02:53:54.444Z,3.77
2018-07-10T02:56:23.457Z,4.20
2018-07-10T02:58:52.196Z,3.57
2018-07-10T03:01:21.153Z,5.40
2018-07-10T03:03:50.293Z,5.80
2018-07-10T03:06:19.034Z,3.03
2018-07-10T03:08:47.757Z,3.40
2018-07-10T03:11:16.536Z,4.47
2018-07-10T03:13:45.333Z,2.93
2018-07-10T03:16:14.158Z,3.30
2018-07-10T03:18:42.946Z,5.07
2018-07-10T03:21:11.729Z,3.80
2018-07-10T03:23:40.542Z,3.13
2018-07-10T03:26:09.329Z,4.10
2018-07-10T03:28:38.155Z,3.07
2018-07-10T03:31:06.853Z,2.93
2018-07-10T03:33:35.638Z,3.50
2018-07-10T03:36:04.421Z,5.47
2018-07-10T03:38:33.207Z,2.90
2018-07-10T03:41:02.232Z,2.80
2018-07-10T03:43:31.112Z,6.80
2018-07-10T03:46:00.470Z,2.30
2018-07-10T03:48:29.416Z,3.60
2018-07-10T03:50:58.222Z,4.20
2018-07-10T03:53:27.011Z,2.40
2018-07-10T03:55:55.772Z,3.03
2018-07-10T03:58:24.596Z,5.30
2018-07-10T04:00:53.454Z,3.53
2018-07-10T04:03:29.541Z,5.53
2018-07-10T04:05:59.253Z,3.70
2018-07-10T04:08:28.322Z,4.00
2018-07-10T04:10:57.148Z,3.27
2018-07-10T04:13:26.018Z,4.10
2018-07-10T04:16:01.341Z,2.73
2018-07-10T04:18:31.759Z,4.10
2018-07-10T04:21:33.337Z,2.97
2018-07-10T04:24:14.385Z,4.80
2018-07-10T04:26:53.795Z,4.40
2018-07-10T04:29:36.135Z,3.23
2018-07-10T04:32:04.961Z,7.47
2018-07-10T04:34:34.209Z,2.70
2018-07-10T04:37:12.869Z,3.90
2018-07-10T04:39:42.996Z,5.63
2018-07-10T04:42:29.242Z,3.83
2018-07-10T04:45:08.896Z,6.13
2018-07-10T04:47:49.720Z,3.77
2018-07-10T04:50:21.408Z,9.20
2018-07-10T04:52:59.726Z,5.60
2018-07-10T04:55:28.752Z,5.57
2018-07-10T04:58:07.995Z,4.40
2018-07-10T05:00:43.740Z,7.43
2018-07-10T05:03:13.564Z,3.40
2018-07-10T05:05:42.319Z,9.33
2018-07-10T05:08:11.063Z,6.07
2018-07-10T05:10:39.855Z,7.50
2018-07-10T05:13:08.650Z,6.93
2018-07-10T05:15:39.196Z,7.30
2018-07-10T05:18:10.274Z,3.83
2018-07-10T05:20:43.165Z,9.90
2018-07-10T05:23:14.329Z,6.17
2018-07-10T05:25:46.668Z,8.73
2018-07-10T05:28:15.505Z,4.47
2018-07-10T05:30:44.483Z,5.30
2018-07-10T05:33:14.458Z,5.83
2018-07-10T05:35:44.041Z,5.53
2018-07-10T05:38:12.843Z,6.27
2018-07-10T05:40:41.653Z,5.80
2018-07-10T05:43:13.841Z,4.03
2018-07-10T05:45:43.161Z,6.70
2018-07-10T05:48:12.079Z,8.10
2018-07-10T05:50:40.877Z,5.28
2018-07-10T05:53:11.797Z,5.87
2018-07-10T05:55:48.634Z,6.40
2018-07-10T05:58:17.372Z,4.92
2018-07-10T06:00:46.268Z,8.18
2018-07-10T06:03:15.186Z,9.80
2018-07-10T06:05:44.017Z,5.03
2018-07-10T06:08:14.380Z,6.63
2018-07-10T06:10:43.401Z,7.97
2018-07-10T06:13:12.205Z,5.20
2018-07-10T06:15:41.016Z,9.58
2018-07-10T06:18:09.792Z,7.53
2018-07-10T06:20:40.868Z,8.30
2018-07-10T06:23:09.707Z,6.33
2018-07-10T06:25:38.826Z,6.25
2018-07-10T06:28:15.558Z,9.50
2018-07-10T06:30:44.384Z,7.90
2018-07-10T06:33:30.912Z,6.80
2018-07-10T06:36:33.105Z,5.33
2018-07-10T06:39:08.485Z,7.28
2018-07-10T06:41:46.157Z,8.15
2018-07-10T06:44:17.536Z,6.37
2018-07-10T06:46:53.408Z,5.45
2018-07-10T06:49:27.381Z,6.50
2018-07-10T06:52:10.475Z,9.70
2018-07-10T06:54:50.868Z,6.20
2018-07-10T06:57:24.109Z,6.83
2018-07-10T06:59:53.040Z,5.45
2018-07-10T07:02:21.835Z,7.58
2018-07-10T07:04:50.677Z,7.12
2018-07-10T07:07:19.484Z,6.70
2018-07-10T07:09:48.276Z,7.22
2018-07-10T07:12:17.113Z,6.65
2018-07-10T07:14:46.164Z,6.75
2018-07-10T07:17:15.193Z,6.72
2018-07-10T07:19:43.948Z,7.10
2018-07-10T07:22:12.775Z,7.12
2018-07-10T07:24:41.599Z,7.40
2018-07-10T07:27:10.563Z,7.15
2018-07-10T07:29:39.393Z,8.13
2018-07-10T07:32:08.236Z,6.30
2018-07-10T07:34:37.016Z,7.60
2018-07-10T07:37:05.828Z,5.50
2018-07-10T07:39:34.996Z,6.40
2018-07-10T07:42:04.121Z,6.60
2018-07-10T07:44:32.877Z,6.25
2018-07-10T07:47:01.694Z,6.45
2018-07-10T07:49:31.262Z,7.35
2018-07-10T07:52:00.126Z,7.03
2018-07-10T07:54:29.546Z,5.70
2018-07-10T07:56:58.477Z,6.40
2018-07-10T07:59:27.309Z,6.87
2018-07-10T08:01:56.214Z,7.87
2018-07-10T08:04:24.940Z,7.72
2018-07-10T08:06:53.773Z,9.15
2018-07-10T08:09:22.650Z,8.63
2018-07-10T08:11:51.740Z,7.70
2018-07-10T08:14:20.571Z,7.30
2018-07-10T08:16:49.363Z,7.47
2018-07-10T08:19:20.300Z,7.65
2018-07-10T08:21:50.623Z,8.38
2018-07-10T08:24:22.040Z,7.80
2018-07-10T08:26:52.809Z,8.65
2018-07-10T08:29:23.000Z,10.38
2018-07-10T08:31:52.805Z,9.48
2018-07-10T08:34:22.204Z,8.98
2018-07-10T08:36:51.062Z,12.15
2018-07-10T08:39:20.144Z,8.78
2018-07-10T08:41:49.410Z,8.70
2018-07-10T08:44:19.063Z,8.90
2018-07-10T08:46:50.817Z,7.53
2018-07-10T08:49:19.654Z,7.90
2018-07-10T08:51:51.632Z,6.65
2018-07-10T08:54:22.848Z,5.47
2018-07-10T08:56:53.261Z,7.62
2018-07-10T08:59:22.807Z,8.60
2018-07-10T09:01:51.766Z,7.65
2018-07-10T09:04:21.067Z,7.85
2018-07-10T09:06:49.886Z,8.30
2018-07-10T09:09:19.226Z,8.63
2018-07-10T09:11:48.046Z,6.53
2018-07-10T09:14:17.364Z,5.58
2018-07-10T09:16:46.645Z,7.25
2018-07-10T09:19:17.833Z,7.35
2018-07-10T09:22:08.196Z,7.67
2018-07-10T09:24:40.896Z,6.22
2018-07-10T09:27:10.493Z,6.03
2018-07-10T09:29:39.408Z,6.53
2018-07-10T09:32:09.389Z,5.40
2018-07-10T09:34:38.217Z,6.62
2018-07-10T09:37:11.201Z,5.58
2018-07-10T09:39:40.036Z,5.25
2018-07-10T09:42:08.816Z,4.90
2018-07-10T09:44:37.666Z,5.87
2018-07-10T09:47:06.505Z,4.15
2018-07-10T09:49:35.266Z,4.53
2018-07-10T09:52:04.122Z,4.58
2018-07-10T09:54:33.001Z,5.08
2018-07-10T09:57:02.074Z,3.85
2018-07-10T09:59:31.148Z,4.10
2018-07-10T10:02:05.323Z,4.28
2018-07-10T10:04:35.023Z,4.15
2018-07-10T10:07:03.886Z,4.28
2018-07-10T10:09:32.736Z,4.00
2018-07-10T10:12:01.681Z,4.42
2018-07-10T10:14:30.595Z,4.33
2018-07-10T10:16:59.425Z,5.17
2018-07-10T10:19:29.077Z,3.70
2018-07-10T10:21:57.876Z,5.25
2018-07-10T10:24:26.692Z,4.50
2018-07-10T10:26:56.519Z,4.05
2018-07-10T10:29:25.320Z,4.20
2018-07-10T10:31:54.084Z,4.37
2018-07-10T10:34:22.906Z,5.17
2018-07-10T10:36:51.699Z,5.12
2018-07-10T10:39:20.612Z,4.35
2018-07-10T10:41:49.400Z,4.62
2018-07-10T10:44:18.212Z,4.70
2018-07-10T10:46:47.049Z,3.40
2018-07-10T10:49:15.895Z,5.85
2018-07-10T10:51:44.703Z,6.50
2018-07-10T10:54:13.689Z,6.92
2018-07-10T10:56:42.547Z,7.00
2018-07-10T10:59:11.380Z,8.25
2018-07-10T11:01:40.290Z,8.20
2018-07-10T11:04:09.137Z,8.80
2018-07-10T11:06:37.962Z,9.13
2018-07-10T11:09:06.957Z,8.58
2018-07-10T11:11:35.797Z,8.58
2018-07-10T11:14:05.084Z,8.30
2018-07-10T11:16:33.930Z,8.68
2018-07-10T11:19:28.029Z,11.00
2018-07-10T11:22:03.949Z,7.97
2018-07-10T11:24:45.217Z,9.78
2018-07-10T11:27:35.554Z,8.05
2018-07-10T11:30:04.458Z,7.70
2018-07-10T11:32:33.286Z,10.08
2018-07-10T11:35:02.116Z,9.45
2018-07-10T11:37:30.910Z,10.15
2018-07-10T11:39:59.715Z,8.33
2018-07-10T11:42:28.586Z,10.32
2018-07-10T11:44:57.395Z,8.88
2018-07-10T11:47:26.256Z,9.90
2018-07-10T11:49:55.210Z,10.40
2018-07-10T11:52:24.002Z,9.85
2018-07-10T11:54:52.845Z,9.15
2018-07-10T11:57:22.060Z,8.78
2018-07-10T11:59:50.896Z,9.00
2018-07-10T12:02:19.977Z,9.40
2018-07-10T12:04:48.829Z,7.33
2018-07-10T12:07:17.653Z,8.03
2018-07-10T12:09:57.521Z,6.33
2018-07-10T12:12:26.367Z,6.42
2018-07-10T12:14:55.157Z,7.33
2018-07-10T12:17:23.979Z,7.22
2018-07-10T12:19:52.838Z,9.10
2018-07-10T12:22:21.640Z,9.35
2018-07-10T12:24:50.500Z,8.73
2018-07-10T12:27:19.414Z,6.65
2018-07-10T12:29:48.288Z,8.35
2018-07-10T12:32:17.094Z,8.45
2018-07-10T12:34:45.877Z,8.48
2018-07-10T12:37:14.602Z,6.63
2018-07-10T12:39:43.454Z,6.17
2018-07-10T12:42:12.277Z,6.25
2018-07-10T12:44:41.368Z,6.42
2018-07-10T12:47:10.161Z,6.93
2018-07-10T12:49:38.921Z,7.93
2018-07-10T12:52:07.908Z,7.97
2018-07-10T12:54:36.738Z,7.60
2018-07-10T12:57:05.538Z,8.05
2018-07-10T12:59:34.449Z,7.33
2018-07-10T13:02:03.265Z,7.30
2018-07-10T13:04:32.104Z,8.07
2018-07-10T13:07:00.885Z,6.93
2018-07-10T13:09:29.700Z,9.07
2018-07-10T13:11:58.719Z,6.13
2018-07-10T13:14:27.492Z,6.20
2018-07-10T13:16:56.261Z,7.20
2018-07-10T13:19:25.052Z,6.30
2018-07-10T13:21:53.823Z,7.60
2018-07-10T13:24:22.566Z,7.80
2018-07-10T13:26:51.420Z,6.60
2018-07-10T13:29:20.285Z,5.35
2018-07-10T13:31:49.116Z,7.53
2018-07-10T13:34:17.930Z,6.50
2018-07-10T13:36:46.741Z,8.13
2018-07-10T13:39:15.568Z,8.50
2018-07-10T13:41:44.353Z,7.77
2018-07-10T13:44:13.144Z,9.20
2018-07-10T13:46:41.896Z,10.40
2018-07-10T13:49:10.785Z,8.28
2018-07-10T13:51:39.632Z,9.33
2018-07-10T13:54:08.407Z,9.70
2018-07-10T13:56:37.236Z,8.00
2018-07-10T13:59:05.995Z,12.37
2018-07-10T14:01:34.855Z,8.53
2018-07-10T14:04:03.681Z,8.47
2018-07-10T14:06:32.416Z,8.18
2018-07-10T14:09:01.322Z,9.27
2018-07-10T14:11:30.105Z,8.97
2018-07-10T14:13:58.840Z,8.18
2018-07-10T14:16:27.657Z,9.75
2018-07-10T14:18:58.556Z,10.30
2018-07-10T14:21:27.388Z,8.30
2018-07-10T14:23:56.286Z,10.43
2018-07-10T14:26:25.081Z,9.10
2018-07-10T14:28:53.875Z,11.20
2018-07-10T14:31:22.681Z,9.60
2018-07-10T14:33:51.521Z,12.10
2018-07-10T14:36:20.297Z,11.50
2018-07-10T14:38:49.159Z,10.50
2018-07-10T14:41:17.984Z,10.82
2018-07-10T14:43:48.055Z,9.58
2018-07-10T14:46:22.179Z,10.47
2018-07-10T14:48:58.988Z,12.50
2018-07-10T14:51:49.049Z,9.30
2018-07-10T14:54:17.885Z,10.67
2018-07-10T14:56:47.006Z,11.33
2018-07-10T14:59:15.502Z,9.75
2018-07-10T15:01:44.564Z,8.80
2018-07-10T15:04:13.379Z,9.77
2018-07-10T15:06:42.136Z,13.27
2018-07-10T15:09:10.852Z,9.53
2018-07-10T15:11:41.281Z,13.00
2018-07-10T15:14:11.050Z,11.20
2018-07-10T15:16:45.200Z,10.77
2018-07-10T15:19:15.337Z,12.13
2018-07-10T15:21:44.208Z,11.63
2018-07-10T15:24:12.962Z,11.70
2018-07-10T15:26:41.748Z,11.87
2018-07-10T15:29:10.671Z,11.57
2018-07-10T15:31:39.649Z,11.47
2018-07-10T15:34:08.515Z,10.93
2018-07-10T15:36:37.256Z,13.03
2018-07-10T15:39:06.109Z,13.75
2018-07-10T15:41:34.937Z,11.80
2018-07-10T15:44:04.346Z,11.80
2018-07-10T15:46:33.452Z,14.50
2018-07-10T15:49:02.328Z,12.73
2018-07-10T15:51:31.192Z,13.45
2018-07-10T15:53:59.982Z,14.00
2018-07-10T15:56:28.764Z,13.50
2018-07-10T15:58:57.614Z,11.90
2018-07-10T16:01:27.260Z,12.90
2018-07-10T16:03:56.511Z,14.83
2018-07-10T16:06:25.965Z,13.20
2018-07-10T16:09:00.384Z,13.50
2018-07-10T16:11:29.239Z,13.43
2018-07-10T16:13:58.105Z,12.00
2018-07-10T16:16:27.576Z,15.58
2018-07-10T16:18:59.550Z,14.20
2018-07-10T16:21:36.794Z,13.83
2018-07-10T16:24:07.441Z,12.55
2018-07-10T16:26:36.329Z,13.05
2018-07-10T16:29:08.001Z,16.32
2018-07-10T16:31:40.052Z,16.35
2018-07-10T16:34:09.740Z,18.75
2018-07-10T16:36:42.032Z,13.75
2018-07-10T16:39:12.872Z,12.85
2018-07-10T16:41:46.972Z,14.93
2018-07-10T16:44:16.067Z,12.93
2018-07-10T16:46:50.939Z,13.03
2018-07-10T16:49:26.937Z,13.18
2018-07-10T16:52:11.554Z,13.95
2018-07-10T16:54:40.333Z,13.28
2018-07-10T16:57:09.356Z,12.90
2018-07-10T16:59:38.229Z,15.18
2018-07-10T17:02:07.018Z,13.05
2018-07-10T17:04:36.128Z,12.10
2018-07-10T17:07:05.665Z,14.10
2018-07-10T17:09:35.028Z,13.40
2018-07-10T17:12:03.862Z,11.70
2018-07-10T17:14:34.108Z,15.90
2018-07-10T17:17:03.069Z,17.10
2018-07-10T17:19:31.932Z,15.80
2018-07-10T17:22:00.797Z,16.87
2018-07-10T17:24:29.599Z,14.13
2018-07-10T17:26:58.756Z,13.63
2018-07-10T17:29:28.220Z,15.23
2018-07-10T17:31:56.957Z,16.00
2018-07-10T17:34:25.765Z,16.30
2018-07-10T17:36:54.701Z,16.60
2018-07-10T17:39:23.533Z,18.35
2018-07-10T17:41:52.435Z,19.07
2018-07-10T17:44:21.321Z,15.40
2018-07-10T17:46:50.150Z,19.67
2018-07-10T17:49:19.010Z,18.20
2018-07-10T17:51:47.929Z,16.02
2018-07-10T17:54:16.892Z,16.12
2018-07-10T17:56:45.726Z,14.75
2018-07-10T17:59:14.639Z,15.70
2018-07-10T18:01:43.500Z,13.98
2018-07-10T18:04:12.304Z,13.08
2018-07-10T18:06:41.217Z,14.13
2018-07-10T18:09:10.771Z,14.83
2018-07-10T18:11:39.614Z,16.05
2018-07-10T18:14:08.483Z,17.17
2018-07-10T18:16:37.339Z,13.43
2018-07-10T18:19:06.618Z,15.13
2018-07-10T18:21:36.447Z,15.78
2018-07-10T18:24:08.007Z,15.70
2018-07-10T18:26:36.811Z,15.40
2018-07-10T18:29:05.654Z,16.73
2018-07-10T18:31:34.623Z,15.32
2018-07-10T18:34:03.461Z,13.88
2018-07-10T18:36:32.868Z,14.25
2018-07-10T18:39:01.870Z,13.95
2018-07-10T18:41:31.384Z,15.25
2018-07-10T18:44:00.837Z,14.45
2018-07-10T18:46:29.700Z,15.30
2018-07-10T18:48:59.200Z,15.35
2018-07-10T18:51:28.431Z,16.52
2018-07-10T18:53:57.653Z,20.48
2018-07-10T18:56:26.609Z,15.25
2018-07-10T18:59:05.552Z,14.60
2018-07-10T19:01:43.057Z,18.60
2018-07-10T19:04:12.115Z,17.23
2018-07-10T19:06:41.115Z,25.75
2018-07-10T19:09:18.737Z,26.95
2018-07-10T19:11:47.707Z,25.45
2018-07-10T19:14:16.554Z,19.42
2018-07-10T19:16:45.435Z,25.68
2018-07-10T19:19:14.352Z,20.30
2018-07-10T19:21:46.867Z,23.73
2018-07-10T19:24:19.157Z,22.32
2018-07-10T19:26:50.289Z,27.20
2018-07-10T19:29:27.536Z,24.37
2018-07-10T19:31:56.805Z,27.22
2018-07-10T19:34:26.045Z,27.80
2018-07-10T19:36:54.910Z,27.45
2018-07-10T19:39:25.759Z,28.87
2018-07-10T19:41:54.630Z,26.87
2018-07-10T19:44:23.606Z,27.42
2018-07-10T19:46:52.506Z,25.27
2018-07-10T19:49:22.867Z,24.43
2018-07-10T19:51:52.776Z,23.77
2018-07-10T19:54:23.009Z,27.00
2018-07-10T19:56:52.712Z,25.02
2018-07-10T19:59:21.649Z,21.68
2018-07-10T20:01:52.135Z,22.98
2018-07-10T20:04:28.310Z,21.52
2018-07-10T20:07:20.325Z,20.95
2018-07-10T20:10:55.704Z,23.80
2018-07-10T20:13:46.152Z,24.72
2018-07-10T20:16:24.769Z,25.48
2018-07-10T20:21:08.107Z,28.05
2018-07-10T20:23:48.892Z,29.90
2018-07-10T20:26:24.386Z,28.02
2018-07-10T20:29:02.942Z,25.10
2018-07-10T20:31:41.348Z,26.90
2018-07-10T20:35:18.352Z,21.95
2018-07-10T20:37:48.869Z,27.15
2018-07-10T20:40:35.815Z,21.07
2018-07-10T20:43:07.093Z,24.23
2018-07-10T20:45:41.218Z,27.60
2018-07-10T20:48:19.880Z,23.20
2018-07-10T20:50:55.196Z,25.97
2018-07-10T20:53:36.101Z,23.25
2018-07-10T20:56:44.129Z,21.23
2018-07-10T20:59:21.237Z,21.20
2018-07-10T21:01:53.564Z,20.57
2018-07-10T21:04:35.728Z,26.17
2018-07-10T21:08:12.132Z,26.17
2018-07-10T21:10:47.336Z,22.45
2018-07-10T21:13:30.015Z,26.45
2018-07-10T21:17:15.638Z,29.72
2018-07-10T21:19:59.397Z,24.05
2018-07-10T21:24:47.482Z,24.98
2018-07-10T21:28:26.126Z,24.47
2018-07-10T21:31:16.917Z,24.90
2018-07-10T21:34:25.554Z,25.02
2018-07-10T21:39:08.012Z,24.77
2018-07-10T21:42:49.381Z,22.40
2018-07-10T21:45:32.265Z,22.82
2018-07-10T21:48:14.383Z,18.23
2018-07-10T21:50:52.072Z,22.20
2018-07-10T21:53:21.587Z,20.75
2018-07-10T21:55:50.488Z,16.65
2018-07-10T21:58:20.927Z,20.68
2018-07-10T22:02:00.412Z,20.43
2018-07-10T22:04:31.190Z,20.43
2018-07-10T22:07:01.845Z,15.45
2018-07-10T22:09:37.215Z,18.25
2018-07-10T22:12:09.405Z,13.90
2018-07-10T22:14:38.470Z,14.87
2018-07-10T22:17:26.093Z,19.50
2018-07-10T22:19:56.074Z,19.82
2018-07-10T22:22:26.769Z,17.60
2018-07-10T22:24:56.723Z,17.82
2018-07-10T22:27:26.079Z,14.63
2018-07-10T22:30:06.480Z,15.08
2018-07-10T22:32:43.363Z,14.18
2018-07-10T22:35:12.644Z,18.90
2018-07-10T22:37:41.480Z,15.90
2018-07-10T22:40:10.575Z,17.95
2018-07-10T22:42:39.571Z,15.05
2018-07-10T22:45:08.451Z,18.90
2018-07-10T22:47:40.645Z,19.07
2018-07-10T22:50:19.003Z,16.35
2018-07-10T22:52:55.546Z,16.87
2018-07-10T22:55:25.762Z,18.92
2018-07-10T22:58:10.935Z,19.50
2018-07-10T23:00:40.649Z,19.27
2018-07-10T23:03:19.853Z,20.17
2018-07-10T23:05:50.327Z,19.80
2018-07-10T23:08:22.635Z,17.73
2018-07-10T23:10:51.413Z,16.00
2018-07-10T23:13:20.436Z,16.25
2018-07-10T23:15:49.949Z,14.95
2018-07-10T23:18:19.337Z,19.00
2018-07-10T23:20:48.221Z,22.58
2018-07-10T23:23:17.434Z,22.30
2018-07-10T23:25:46.263Z,20.95
2018-07-10T23:28:15.094Z,23.62
2018-07-10T23:30:44.477Z,20.65
2018-07-10T23:33:14.968Z,18.30
2018-07-10T23:35:46.336Z,24.75
2018-07-10T23:38:23.492Z,21.20
2018-07-10T23:40:53.110Z,22.87
2018-07-10T23:43:21.899Z,23.70
2018-07-10T23:45:50.752Z,21.00
2018-07-10T23:48:19.630Z,17.85
2018-07-10T23:50:49.992Z,19.10
2018-07-10T23:53:51.703Z,20.45
2018-07-10T23:56:21.197Z,21.60
2018-07-10T23:58:50.758Z,19.48
